createdAt,value
2019-01-14T14:57:58.206Z,14.13
2019-01-14T14:59:02.912Z,13.93
2019-01-14T15:00:09.074Z,14.26
2019-01-14T15:01:15.267Z,14.29
2019-01-14T15:02:21.466Z,14.28
2019-01-14T15:03:27.632Z,13.99
2019-01-14T15:04:33.836Z,14.28
2019-01-14T15:05:40.998Z,14.08
2019-01-14T15:06:46.179Z,13.96
2019-01-14T15:07:52.372Z,13.78
2019-01-14T15:08:59.022Z,13.88
2019-01-14T15:10:05.197Z,14.02
2019-01-14T15:11:11.186Z,14.16
2019-01-14T15:12:17.540Z,13.84
2019-01-14T15:13:23.209Z,13.86
2019-01-14T15:14:29.365Z,13.82
2019-01-14T15:15:35.529Z,11.03
2019-01-14T15:16:41.692Z,8.67
2019-01-14T15:17:48.338Z,7.11
2019-01-14T15:18:54.911Z,6.00
2019-01-14T15:20:00.260Z,5.35
2019-01-14T15:21:06.814Z,4.97
2019-01-14T15:22:12.934Z,4.73
2019-01-14T15:23:18.600Z,4.60
2019-01-14T15:24:24.751Z,4.53
2019-01-14T15:25:31.384Z,4.48
2019-01-14T15:26:37.517Z,4.44
2019-01-14T15:27:43.159Z,4.39
2019-01-14T15:28:49.520Z,4.38
2019-01-14T15:29:55.941Z,4.39
2019-01-14T15:31:02.952Z,4.40
2019-01-14T15:32:07.734Z,4.43
2019-01-14T15:33:29.850Z,4.45
2019-01-14T15:34:37.991Z,4.44
2019-01-14T15:38:36.333Z,4.35
2019-01-14T15:39:42.484Z,4.31
2019-01-14T15:40:48.948Z,4.28
2019-01-14T15:41:55.241Z,4.27
2019-01-14T15:43:01.356Z,4.26
2019-01-14T15:44:07.489Z,4.23
2019-01-14T15:45:13.101Z,4.21
2019-01-14T15:46:19.724Z,4.18
2019-01-14T15:47:25.847Z,4.14
2019-01-14T15:48:31.478Z,4.11
2019-01-14T15:49:37.592Z,4.09
2019-01-14T15:50:44.207Z,4.10
2019-01-14T15:51:49.826Z,4.08
2019-01-14T15:52:56.475Z,4.05
2019-01-14T15:54:02.066Z,4.03
2019-01-14T15:55:08.256Z,3.98
2019-01-14T15:56:14.771Z,3.92
2019-01-14T15:57:20.395Z,3.85
2019-01-14T15:58:26.997Z,3.75
2019-01-14T15:59:32.618Z,3.67
2019-01-14T16:00:39.202Z,3.63
2019-01-14T16:01:45.316Z,3.64
2019-01-14T16:02:51.426Z,3.62
2019-01-14T16:03:57.103Z,3.57
2019-01-14T16:05:03.637Z,3.54
2019-01-14T16:06:09.231Z,3.50
2019-01-14T16:07:15.806Z,3.44
2019-01-14T16:08:21.910Z,3.37
2019-01-14T16:09:27.999Z,3.35
2019-01-14T16:10:33.633Z,3.36
2019-01-14T16:11:40.189Z,3.37
2019-01-14T16:12:46.340Z,3.36
2019-01-14T16:13:52.389Z,3.31
2019-01-14T16:14:58.167Z,3.26
2019-01-14T16:16:04.599Z,3.25
2019-01-14T16:17:10.156Z,3.24
2019-01-14T16:18:16.769Z,3.24
2019-01-14T16:19:22.847Z,3.20
2019-01-14T16:20:28.909Z,3.19
2019-01-14T16:21:35.044Z,3.21
2019-01-14T16:22:40.579Z,3.28
2019-01-14T16:23:46.672Z,3.32
2019-01-14T16:24:52.766Z,3.35
2019-01-14T16:25:59.329Z,3.39
2019-01-14T16:27:05.413Z,3.40
2019-01-14T16:28:11.516Z,3.41
2019-01-14T16:29:17.591Z,3.44
2019-01-14T16:30:23.188Z,3.46
2019-01-14T16:31:29.272Z,3.50
2019-01-14T16:32:35.842Z,3.54
2019-01-14T16:33:41.933Z,3.55
2019-01-14T16:34:47.650Z,3.57
2019-01-14T16:35:54.105Z,3.59
2019-01-14T16:37:00.189Z,3.60
2019-01-14T16:38:06.280Z,3.61
2019-01-14T16:39:12.831Z,3.62
2019-01-14T16:40:18.525Z,3.59
2019-01-14T16:41:24.549Z,3.56
2019-01-14T16:42:30.176Z,3.55
2019-01-14T16:43:36.722Z,3.55
2019-01-14T16:44:42.825Z,3.53
2019-01-14T16:45:48.921Z,3.53
2019-01-14T16:46:55.007Z,3.52
2019-01-14T16:48:01.121Z,3.50
2019-01-14T16:49:07.175Z,3.45
2019-01-14T16:50:12.785Z,3.44
2019-01-14T16:51:18.872Z,3.42
2019-01-14T16:52:25.466Z,3.41
2019-01-14T16:53:31.548Z,3.40
2019-01-14T16:54:37.641Z,3.38
2019-01-14T16:55:43.742Z,3.36
2019-01-14T16:56:49.816Z,3.34
2019-01-14T16:57:55.907Z,3.33
2019-01-14T16:59:01.505Z,3.33
2019-01-14T17:00:08.088Z,3.33
2019-01-14T17:01:14.180Z,3.32
2019-01-14T17:02:20.270Z,3.29
2019-01-14T17:03:25.867Z,3.24
2019-01-14T17:04:31.947Z,3.17
2019-01-14T17:05:38.024Z,3.09
2019-01-14T17:06:44.116Z,3.02
2019-01-14T17:07:50.687Z,2.96
2019-01-14T17:08:56.773Z,2.85
2019-01-14T17:10:02.361Z,2.76
2019-01-14T17:11:08.935Z,2.71
2019-01-14T17:12:15.017Z,2.65
2019-01-14T17:13:21.077Z,2.61
2019-01-14T17:14:26.676Z,2.58
2019-01-14T17:15:32.738Z,2.57
2019-01-14T17:16:38.804Z,2.58
2019-01-14T17:17:45.388Z,2.61
2019-01-14T17:18:51.468Z,2.61
2019-01-14T17:19:57.036Z,2.60
2019-01-14T17:21:03.104Z,2.58
2019-01-14T17:22:09.667Z,2.58
2019-01-14T17:23:15.769Z,2.58
2019-01-14T17:24:22.820Z,2.56
2019-01-14T17:25:27.888Z,2.53
2019-01-14T17:26:33.473Z,2.49
2019-01-14T17:27:40.043Z,2.48
2019-01-14T17:28:46.546Z,2.47
2019-01-14T17:29:52.185Z,2.46
2019-01-14T17:30:57.741Z,2.49
2019-01-14T17:32:03.816Z,2.51
2019-01-14T17:33:10.390Z,2.54
2019-01-14T17:34:15.956Z,2.53
2019-01-14T17:35:22.020Z,2.54
2019-01-14T17:36:28.603Z,2.55
2019-01-14T17:37:34.656Z,2.55
2019-01-14T17:38:40.428Z,2.57
2019-01-14T17:39:46.300Z,2.62
2019-01-14T17:40:53.364Z,2.65
2019-01-14T17:41:58.440Z,2.69
2019-01-14T17:43:04.994Z,2.71
2019-01-14T17:44:11.083Z,2.72
2019-01-14T17:45:17.128Z,2.72
2019-01-14T17:46:23.214Z,2.72
2019-01-14T17:47:29.274Z,2.72
2019-01-14T17:48:35.338Z,2.76
2019-01-14T17:49:41.410Z,2.79
2019-01-14T17:50:47.539Z,2.84
2019-01-14T17:51:54.572Z,2.87
2019-01-14T17:52:59.618Z,2.88
2019-01-14T17:54:05.693Z,2.87
2019-01-14T17:55:11.759Z,2.85
2019-01-14T17:56:17.843Z,2.86
2019-01-14T17:57:23.914Z,2.82
2019-01-14T17:58:29.986Z,2.78
2019-01-14T17:59:36.054Z,2.76
2019-01-14T18:00:42.111Z,2.73
2019-01-14T18:01:48.199Z,2.69
2019-01-14T18:02:54.295Z,2.62
2019-01-14T18:03:59.829Z,2.54
2019-01-14T18:05:05.906Z,2.50
2019-01-14T18:06:11.983Z,2.48
2019-01-14T18:07:18.621Z,2.44
2019-01-14T18:08:24.095Z,2.42
2019-01-14T18:09:30.171Z,2.44
2019-01-14T18:10:40.196Z,2.48
2019-01-14T18:11:42.782Z,2.49
2019-01-14T18:12:48.835Z,2.49
2019-01-14T18:13:55.040Z,2.52
2019-01-14T18:15:00.618Z,2.58
2019-01-14T18:16:07.043Z,2.59
2019-01-14T18:17:13.103Z,2.57
2019-01-14T18:18:19.171Z,2.54
2019-01-14T18:19:25.269Z,2.50
2019-01-14T18:20:30.814Z,2.52
2019-01-14T18:21:36.864Z,2.52
2019-01-14T18:22:42.923Z,2.46
2019-01-14T18:23:50.210Z,2.38
2019-01-14T18:24:55.548Z,2.36
2019-01-14T18:26:01.112Z,2.37
2019-01-14T18:27:07.173Z,2.38
2019-01-14T18:28:13.724Z,2.34
2019-01-14T18:29:19.773Z,2.35
2019-01-14T18:30:25.838Z,2.41
2019-01-14T18:31:31.905Z,2.42
2019-01-14T18:32:37.962Z,2.39
2019-01-14T18:33:44.017Z,2.36
2019-01-14T18:34:50.584Z,2.34
2019-01-14T18:35:56.129Z,2.33
2019-01-14T18:37:02.194Z,2.30
2019-01-14T18:38:07.769Z,2.27
2019-01-14T18:39:14.306Z,2.20
2019-01-14T18:40:20.368Z,2.16
2019-01-14T18:41:25.926Z,2.13
2019-01-14T18:42:32.638Z,2.10
2019-01-14T18:43:38.038Z,2.04
2019-01-14T18:44:44.628Z,2.02
2019-01-14T18:45:50.140Z,1.98
2019-01-14T18:46:56.198Z,1.95
2019-01-14T18:48:02.271Z,1.91
2019-01-14T18:49:08.800Z,1.88
2019-01-14T18:50:14.344Z,1.87
2019-01-14T18:51:20.414Z,1.90
2019-01-14T18:52:26.948Z,1.96
2019-01-14T18:53:32.524Z,1.98
2019-01-14T18:54:38.564Z,1.97
2019-01-14T18:55:45.099Z,1.98
2019-01-14T18:56:51.144Z,1.98
2019-01-14T18:57:57.210Z,1.94
2019-01-14T18:59:03.241Z,1.89
2019-01-14T19:00:08.818Z,1.88
2019-01-14T19:01:14.838Z,1.92
2019-01-14T19:02:21.395Z,1.96
2019-01-14T19:03:27.444Z,1.98
2019-01-14T19:04:33.488Z,1.94
2019-01-14T19:05:39.530Z,1.90
2019-01-14T19:06:45.580Z,1.87
2019-01-14T19:07:51.651Z,1.87
2019-01-14T19:08:57.673Z,1.91
2019-01-14T19:10:03.721Z,1.87
2019-01-14T19:11:09.767Z,1.82
2019-01-14T19:12:15.809Z,1.80
2019-01-14T19:13:21.857Z,1.84
2019-01-14T19:14:27.920Z,1.87
2019-01-14T19:15:33.463Z,1.86
2019-01-14T19:16:39.995Z,1.83
2019-01-14T19:17:46.023Z,1.79
2019-01-14T19:18:51.583Z,1.84
2019-01-14T19:19:57.624Z,1.89
2019-01-14T19:21:04.153Z,1.92
2019-01-14T19:22:09.716Z,1.91
2019-01-14T19:23:15.955Z,1.91
2019-01-14T19:24:21.794Z,1.90
2019-01-14T19:25:28.337Z,1.87
2019-01-14T19:26:34.383Z,1.85
2019-01-14T19:27:39.938Z,1.81
2019-01-14T19:28:46.629Z,1.77
2019-01-14T19:29:52.514Z,1.74
2019-01-14T19:30:58.047Z,1.73
2019-01-14T19:32:05.652Z,1.74
2019-01-14T19:33:10.655Z,1.72
2019-01-14T19:34:16.676Z,1.70
2019-01-14T19:35:22.221Z,1.69
2019-01-14T19:36:28.772Z,1.66
2019-01-14T19:37:34.302Z,1.67
2019-01-14T19:38:40.820Z,1.69
2019-01-14T19:39:46.381Z,1.72
2019-01-14T19:40:52.921Z,1.69
2019-01-14T19:41:58.956Z,1.63
2019-01-14T19:43:04.995Z,1.60
2019-01-14T19:44:11.044Z,1.54
2019-01-14T19:45:17.094Z,1.48
2019-01-14T19:46:23.150Z,1.45
2019-01-14T19:48:35.287Z,1.47
2019-01-14T19:49:42.637Z,1.50
2019-01-14T19:51:54.206Z,1.47
2019-01-14T19:52:58.856Z,1.46
2019-01-14T19:54:06.514Z,1.45
2019-01-14T19:55:12.851Z,1.47
2019-01-14T19:57:23.999Z,1.46
2019-01-14T19:58:29.585Z,1.42
2019-01-14T19:59:35.611Z,1.40
2019-01-14T20:00:41.094Z,1.35
2019-01-14T20:01:47.628Z,1.39
2019-01-14T20:02:53.663Z,1.43
2019-01-14T20:03:59.198Z,1.42
2019-01-14T20:05:05.778Z,1.41
2019-01-14T20:06:11.260Z,1.45
2019-01-14T20:07:17.775Z,1.46
2019-01-14T20:08:23.820Z,1.62
2019-01-14T20:09:29.864Z,1.70
2019-01-14T20:10:35.394Z,1.75
2019-01-14T20:11:41.436Z,1.78
2019-01-14T20:12:47.976Z,1.83
2019-01-14T20:13:54.007Z,1.86
2019-01-14T20:14:59.540Z,1.90
2019-01-14T20:16:06.083Z,1.93
2019-01-14T20:17:11.817Z,1.97
2019-01-14T20:18:17.656Z,1.95
2019-01-14T20:19:24.193Z,1.93
2019-01-14T20:20:29.735Z,1.91
2019-01-14T20:21:36.268Z,1.93
2019-01-14T20:22:42.353Z,1.94
2019-01-14T20:23:52.292Z,1.99
2019-01-14T20:24:53.916Z,2.02
2019-01-14T20:25:59.947Z,2.05
2019-01-14T20:27:06.622Z,2.07
2019-01-14T20:28:12.619Z,2.07
2019-01-14T20:29:19.571Z,2.11
2019-01-14T20:30:24.727Z,2.13
2019-01-14T20:31:30.673Z,2.14
2019-01-14T20:32:36.227Z,2.17
2019-01-14T20:33:42.777Z,2.20
2019-01-14T20:34:48.364Z,2.23
2019-01-14T20:35:55.783Z,2.24
2019-01-14T20:37:00.925Z,2.24
2019-01-14T20:38:06.969Z,2.24
2019-01-14T20:39:13.021Z,2.26
2019-01-14T20:40:18.581Z,2.27
2019-01-14T20:41:25.122Z,2.28
2019-01-14T20:42:31.170Z,2.31
2019-01-14T20:43:37.229Z,2.32
2019-01-14T20:44:42.786Z,2.35
2019-01-14T20:45:48.842Z,2.37
2019-01-14T20:46:54.899Z,2.35
2019-01-14T20:48:01.452Z,2.31
2019-01-14T20:49:06.991Z,2.29
2019-01-14T20:50:13.551Z,2.30
2019-01-14T20:51:19.096Z,2.29
2019-01-14T20:52:25.654Z,2.27
2019-01-14T20:53:31.205Z,2.27
2019-01-14T20:54:37.247Z,2.28
2019-01-14T20:55:44.311Z,2.32
2019-01-14T20:56:50.354Z,2.36
2019-01-14T20:57:55.912Z,2.37
2019-01-14T20:59:01.969Z,2.39
2019-01-14T21:00:08.018Z,2.40
2019-01-14T21:01:13.577Z,2.42
2019-01-14T21:02:20.133Z,2.44
2019-01-14T21:03:26.184Z,2.45
2019-01-14T21:04:32.243Z,2.50
2019-01-14T21:05:38.292Z,2.51
2019-01-14T21:06:43.859Z,2.51
2019-01-14T21:07:49.926Z,2.51
2019-01-14T21:08:56.606Z,2.50
2019-01-14T21:10:02.030Z,2.46
2019-01-14T21:11:08.092Z,2.36
2019-01-14T21:12:14.648Z,2.23
2019-01-14T21:13:20.216Z,2.08
2019-01-14T21:14:26.758Z,1.92
2019-01-14T21:15:32.823Z,1.77
2019-01-14T21:16:38.880Z,1.61
2019-01-14T21:17:44.431Z,1.47
2019-01-14T21:18:50.971Z,1.35
2019-01-14T21:21:03.986Z,1.16
2019-01-14T21:23:15.130Z,1.02
2019-01-14T21:24:20.727Z,0.98
2019-01-14T21:25:26.770Z,0.97
2019-01-14T21:26:32.819Z,0.99
2019-01-14T21:27:39.363Z,1.00
2019-01-14T21:28:44.897Z,1.03
2019-01-14T21:29:51.452Z,1.11
2019-01-14T21:30:57.465Z,1.26
2019-01-14T21:32:03.014Z,1.31
2019-01-14T21:33:09.054Z,1.32
2019-01-14T21:34:15.567Z,1.30
2019-01-14T21:35:21.144Z,1.30
2019-01-14T21:36:27.664Z,1.34
2019-01-14T21:37:33.695Z,1.38
2019-01-14T21:38:39.739Z,1.39
2019-01-14T21:39:45.304Z,1.40
2019-01-14T21:40:51.870Z,1.43
2019-01-14T21:41:57.352Z,1.49
2019-01-14T21:43:03.891Z,1.56
2019-01-14T21:44:09.954Z,1.55
2019-01-14T21:45:15.490Z,1.49
2019-01-14T21:46:21.993Z,1.45
2019-01-14T21:47:32.595Z,1.46
2019-01-14T21:48:34.076Z,1.49
2019-01-14T21:49:40.137Z,1.52
2019-01-14T21:50:45.675Z,1.61
2019-01-14T21:51:51.691Z,1.63
2019-01-14T21:52:58.212Z,1.63
2019-01-14T21:54:04.262Z,1.64
2019-01-14T21:55:10.293Z,1.64
2019-01-14T21:56:16.334Z,1.63
2019-01-14T21:57:22.374Z,1.63
2019-01-14T21:58:28.403Z,1.60
2019-01-14T21:59:34.435Z,1.57
2019-01-14T22:00:40.492Z,1.56
2019-01-14T22:01:46.645Z,1.57
2019-01-14T22:02:52.093Z,1.58
2019-01-14T22:03:58.599Z,1.57
2019-01-14T22:05:04.657Z,1.57
2019-01-14T22:06:10.681Z,1.57
2019-01-14T22:07:16.709Z,1.58
2019-01-14T22:08:23.782Z,1.59
2019-01-14T22:09:28.306Z,1.61
2019-01-14T22:10:36.128Z,1.62
2019-01-14T22:11:40.863Z,1.65
2019-01-14T22:12:46.454Z,1.68
2019-01-14T22:13:52.443Z,1.68
2019-01-14T22:14:59.004Z,1.70
2019-01-14T22:16:05.004Z,1.76
2019-01-14T22:17:11.065Z,1.80
2019-01-14T22:18:17.093Z,1.83
2019-01-14T22:19:23.154Z,1.84
2019-01-14T22:20:29.171Z,1.87
2019-01-14T22:21:35.214Z,1.88
2019-01-14T22:22:40.751Z,1.89
2019-01-14T22:23:46.789Z,1.92
2019-01-14T22:24:53.333Z,1.94
2019-01-14T22:25:59.428Z,1.93
2019-01-14T22:27:04.922Z,1.93
2019-01-14T22:28:10.970Z,1.94
2019-01-14T22:29:17.006Z,1.94
2019-01-14T22:30:23.545Z,1.95
2019-01-14T22:31:29.092Z,1.96
2019-01-14T22:32:35.633Z,1.96
2019-01-14T22:33:41.697Z,1.99
2019-01-14T22:34:47.719Z,2.02
2019-01-14T22:35:53.288Z,2.07
2019-01-14T22:36:59.319Z,2.09
2019-01-14T22:38:05.863Z,2.09
2019-01-14T22:39:11.916Z,2.09
2019-01-14T22:40:17.973Z,2.09
2019-01-14T22:41:24.012Z,2.11
2019-01-14T22:42:29.551Z,2.11
2019-01-14T22:43:36.096Z,2.12
2019-01-14T22:44:42.157Z,2.14
2019-01-14T22:45:48.206Z,2.17
2019-01-14T22:46:54.246Z,2.20
2019-01-14T22:47:59.820Z,2.23
2019-01-14T22:49:06.352Z,2.25
2019-01-14T22:50:11.903Z,2.25
2019-01-14T22:51:18.449Z,2.25
2019-01-14T22:52:24.500Z,2.25
2019-01-14T22:53:30.613Z,2.26
2019-01-14T22:54:36.612Z,2.27
2019-01-14T22:55:42.637Z,2.28
2019-01-14T22:56:48.703Z,2.32
2019-01-14T22:57:54.749Z,2.36
2019-01-14T22:59:00.321Z,2.39
2019-01-14T23:00:06.865Z,2.38
2019-01-14T23:01:12.900Z,2.36
2019-01-14T23:02:18.982Z,2.33
2019-01-14T23:03:24.511Z,2.33
2019-01-14T23:04:30.578Z,2.32
2019-01-14T23:05:37.167Z,2.35
2019-01-14T23:06:43.172Z,2.38
2019-01-14T23:07:49.242Z,2.38
2019-01-14T23:08:55.289Z,2.40
2019-01-14T23:10:00.857Z,2.39
2019-01-14T23:11:06.897Z,2.39
2019-01-14T23:12:12.945Z,2.38
2019-01-14T23:13:19.499Z,2.37
2019-01-14T23:14:26.562Z,2.39
2019-01-14T23:15:31.115Z,2.42
2019-01-14T23:16:37.674Z,2.45
2019-01-14T23:17:43.723Z,2.45
2019-01-14T23:18:49.284Z,2.46
2019-01-14T23:19:55.838Z,2.47
2019-01-14T23:21:01.888Z,2.51
2019-01-14T23:22:07.950Z,2.54
2019-01-14T23:23:14.000Z,2.56
2019-01-14T23:24:20.082Z,2.55
2019-01-14T23:25:26.139Z,2.54
2019-01-14T23:26:32.186Z,2.51
2019-01-14T23:27:37.753Z,2.48
2019-01-14T23:28:44.305Z,2.46
2019-01-14T23:29:50.367Z,2.47
2019-01-14T23:30:55.928Z,2.49
2019-01-14T23:32:02.612Z,2.50
2019-01-14T23:33:08.671Z,2.50
2019-01-14T23:34:14.626Z,2.47
2019-01-14T23:35:20.775Z,2.41
2019-01-14T23:36:26.767Z,2.35
2019-01-14T23:37:32.797Z,2.28
2019-01-14T23:38:38.868Z,2.22
2019-01-14T23:39:44.938Z,2.17
2019-01-14T23:40:50.986Z,2.17
2019-01-14T23:42:00.352Z,2.16
2019-01-14T23:43:02.605Z,2.15
2019-01-14T23:44:09.168Z,2.13
2019-01-14T23:45:14.707Z,2.11
2019-01-14T23:46:21.264Z,2.16
2019-01-14T23:47:28.330Z,2.18
2019-01-14T23:49:38.941Z,2.16
2019-01-14T23:50:45.483Z,2.12
2019-01-14T23:51:51.040Z,2.09
2019-01-14T23:52:57.086Z,2.08
2019-01-14T23:54:03.144Z,2.06
2019-01-14T23:55:09.697Z,2.06
2019-01-14T23:56:15.745Z,2.03
2019-01-14T23:57:21.788Z,1.95
2019-01-14T23:58:27.842Z,1.87
2019-01-14T23:59:33.394Z,1.87
